createdAt,value
2023-01-04T00:01:17.544Z,5.92
2023-01-04T00:03:44.555Z,5.81
2023-01-04T00:06:14.143Z,5.87
2023-01-04T00:08:40.982Z,5.84
2023-01-04T00:11:11.272Z,5.90
2023-01-04T00:13:37.920Z,5.86
2023-01-04T00:18:54.627Z,5.71
2023-01-04T00:21:27.353Z,5.64
2023-01-04T00:23:56.372Z,5.76
2023-01-04T00:26:26.135Z,5.79
2023-01-04T00:28:58.641Z,5.75
2023-01-04T00:31:26.479Z,5.74
2023-01-04T00:33:58.265Z,5.64
2023-01-04T00:36:25.063Z,5.64
2023-01-04T00:39:10.655Z,5.42
2023-01-04T00:42:01.702Z,5.40
2023-01-04T00:44:29.442Z,5.31
2023-01-04T00:46:56.391Z,5.13
2023-01-04T00:49:23.447Z,5.23
2023-01-04T00:51:50.257Z,5.13
2023-01-04T00:54:17.255Z,5.20
2023-01-04T00:56:44.418Z,5.09
2023-01-04T00:59:13.383Z,5.12
2023-01-04T01:01:41.725Z,4.94
2023-01-04T01:04:12.003Z,4.92
2023-01-04T01:06:39.161Z,4.92
2023-01-04T01:09:05.990Z,4.99
2023-01-04T01:11:32.710Z,4.91
2023-01-04T01:13:59.485Z,4.86
2023-01-04T01:16:53.145Z,4.89
2023-01-04T01:19:13.828Z,4.76
2023-01-04T01:21:40.432Z,4.76
2023-01-04T01:24:07.519Z,4.84
2023-01-04T01:26:34.536Z,4.88
2023-01-04T01:29:01.173Z,4.84
2023-01-04T01:31:29.145Z,4.86
2023-01-04T01:33:57.036Z,5.00
2023-01-04T01:36:26.027Z,5.14
2023-01-04T01:38:53.481Z,5.19
2023-01-04T01:41:24.034Z,5.24
2023-01-04T01:43:56.718Z,5.22
2023-01-04T01:46:53.729Z,5.29
2023-01-04T01:49:32.091Z,5.17
2023-01-04T01:52:02.162Z,5.24
2023-01-04T01:54:36.998Z,5.28
2023-01-04T01:57:07.549Z,5.31
2023-01-04T01:59:40.024Z,5.31
2023-01-04T02:02:07.181Z,5.32
2023-01-04T02:04:35.425Z,5.26
2023-01-04T02:07:02.855Z,5.25
2023-01-04T02:09:31.361Z,5.04
2023-01-04T02:11:57.895Z,4.99
2023-01-04T02:14:27.786Z,4.93
2023-01-04T02:17:04.173Z,4.97
2023-01-04T02:20:03.904Z,4.96
2023-01-04T02:23:08.503Z,4.82
2023-01-04T02:26:02.844Z,4.79
2023-01-04T02:28:41.515Z,4.73
2023-01-04T02:31:32.741Z,4.67
2023-01-04T02:34:14.236Z,4.68
2023-01-04T02:36:46.428Z,4.71
2023-01-04T02:39:36.484Z,4.53
2023-01-04T02:42:18.129Z,4.37
2023-01-04T02:47:55.090Z,4.22
2023-01-04T02:50:59.924Z,4.28
2023-01-04T02:53:29.020Z,4.26
2023-01-04T02:56:14.259Z,4.25
2023-01-04T02:58:40.765Z,4.20
2023-01-04T03:02:16.851Z,4.23
2023-01-04T03:05:12.911Z,4.17
2023-01-04T03:07:45.529Z,4.19
2023-01-04T03:10:31.236Z,4.20
2023-01-04T03:13:06.538Z,4.26
2023-01-04T03:15:38.076Z,4.23
2023-01-04T03:18:14.584Z,4.28
2023-01-04T03:20:43.048Z,4.32
2023-01-04T03:23:33.369Z,4.19
2023-01-04T03:26:20.860Z,4.06
2023-01-04T03:29:08.360Z,4.03
2023-01-04T03:31:59.678Z,3.84
2023-01-04T03:34:45.192Z,3.86
2023-01-04T03:37:25.835Z,3.87
2023-01-04T03:40:38.753Z,3.88
2023-01-04T03:43:37.805Z,3.87
2023-01-04T03:46:39.018Z,3.80
2023-01-04T03:49:57.550Z,3.93
2023-01-04T03:52:28.605Z,3.94
2023-01-04T03:54:57.738Z,3.97
2023-01-04T03:57:26.018Z,3.96
2023-01-04T04:00:01.173Z,4.06
2023-01-04T04:02:33.080Z,4.07
2023-01-04T04:05:18.215Z,4.18
2023-01-04T04:08:03.288Z,4.18
2023-01-04T04:10:29.846Z,4.27
2023-01-04T04:12:56.388Z,4.38
2023-01-04T04:15:22.945Z,4.55
2023-01-04T04:17:49.523Z,4.61
2023-01-04T04:20:16.572Z,4.82
2023-01-04T04:22:43.447Z,4.85
2023-01-04T04:25:10.402Z,4.90
2023-01-04T04:30:09.218Z,5.04
2023-01-04T04:32:35.850Z,5.01
2023-01-04T04:35:02.363Z,5.09
2023-01-04T04:37:32.141Z,5.20
2023-01-04T04:39:58.973Z,5.26
2023-01-04T04:45:04.454Z,5.27
2023-01-04T04:47:31.004Z,5.35
2023-01-04T04:49:57.573Z,5.42
2023-01-04T04:52:24.127Z,5.45
2023-01-04T04:54:50.729Z,5.52
2023-01-04T04:57:17.261Z,5.59
2023-01-04T04:59:43.875Z,5.55
2023-01-04T05:02:10.553Z,5.63
2023-01-04T05:04:37.173Z,5.76
2023-01-04T05:07:08.927Z,5.76
2023-01-04T05:09:38.700Z,5.80
2023-01-04T05:12:24.040Z,5.81
2023-01-04T05:14:50.570Z,5.80
2023-01-04T05:17:17.532Z,5.73
2023-01-04T05:19:44.033Z,5.78
2023-01-04T05:22:10.569Z,5.84
2023-01-04T05:24:37.090Z,5.88
2023-01-04T05:27:03.716Z,5.95
2023-01-04T05:29:48.841Z,6.00
2023-01-04T05:34:47.092Z,6.03
2023-01-04T05:37:13.646Z,6.05
2023-01-04T05:39:40.175Z,6.02
2023-01-04T05:42:25.137Z,6.03
2023-01-04T05:44:56.674Z,6.11
2023-01-04T05:47:24.493Z,6.10
2023-01-04T05:49:51.844Z,6.16
2023-01-04T05:52:18.957Z,6.18
2023-01-04T05:54:45.972Z,6.12
2023-01-04T05:57:13.559Z,6.17
2023-01-04T05:59:42.114Z,6.22
2023-01-04T06:02:24.544Z,7.55
2023-01-04T06:04:58.395Z,6.92
2023-01-04T06:07:25.836Z,6.61
2023-01-04T06:09:52.583Z,6.62
2023-01-04T06:12:19.334Z,6.59
2023-01-04T06:14:45.933Z,6.52
2023-01-04T06:17:12.898Z,6.50
2023-01-04T06:19:39.554Z,6.43
2023-01-04T06:22:07.249Z,6.48
2023-01-04T06:24:34.275Z,6.55
2023-01-04T06:27:01.919Z,6.54
2023-01-04T06:29:28.571Z,6.57
2023-01-04T06:31:55.382Z,6.57
2023-01-04T06:34:26.974Z,6.50
2023-01-04T06:36:57.467Z,6.51
2023-01-04T06:39:24.143Z,6.50
2023-01-04T06:41:50.863Z,6.52
2023-01-04T06:44:17.417Z,6.51
2023-01-04T06:46:44.034Z,6.48
2023-01-04T06:49:10.728Z,6.54
2023-01-04T06:51:37.283Z,6.48
2023-01-04T06:54:04.171Z,6.46
2023-01-04T06:56:32.286Z,6.62
2023-01-04T07:01:31.146Z,6.58
2023-01-04T07:03:57.833Z,6.58
2023-01-04T07:06:24.409Z,6.52
2023-01-04T07:08:50.993Z,6.54
2023-01-04T07:11:17.523Z,6.54
2023-01-04T07:13:44.084Z,6.59
2023-01-04T07:16:10.827Z,6.71
2023-01-04T07:18:37.348Z,6.68
2023-01-04T07:21:04.107Z,6.69
2023-01-04T07:23:30.642Z,6.68
2023-01-04T07:26:01.294Z,6.72
2023-01-04T07:28:46.548Z,6.51
2023-01-04T07:31:13.283Z,6.54
2023-01-04T07:33:39.976Z,6.54
2023-01-04T07:36:07.426Z,6.62
2023-01-04T07:38:35.241Z,6.70
2023-01-04T07:41:01.999Z,6.74
2023-01-04T07:43:28.935Z,6.66
2023-01-04T07:45:56.159Z,6.57
2023-01-04T07:48:22.946Z,6.60
2023-01-04T07:50:50.187Z,6.60
2023-01-04T07:53:16.902Z,6.58
2023-01-04T07:55:43.503Z,6.55
2023-01-04T07:58:10.063Z,6.53
2023-01-04T08:00:36.680Z,6.55
2023-01-04T08:03:03.437Z,6.57
2023-01-04T08:05:34.706Z,6.64
2023-01-04T08:08:01.396Z,6.58
2023-01-04T08:13:02.890Z,6.53
2023-01-04T08:15:29.531Z,6.42
2023-01-04T08:17:56.907Z,6.46
2023-01-04T08:20:24.526Z,6.49
2023-01-04T08:22:51.069Z,6.53
2023-01-04T08:25:17.693Z,6.53
2023-01-04T08:27:44.650Z,6.48
2023-01-04T08:30:11.388Z,6.53
2023-01-04T08:32:39.686Z,6.81
2023-01-04T08:35:06.658Z,6.61
2023-01-04T08:37:35.117Z,6.60
2023-01-04T08:40:02.017Z,6.63
2023-01-04T08:42:31.827Z,6.78
2023-01-04T08:45:01.563Z,6.65
2023-01-04T08:47:30.494Z,6.69
2023-01-04T08:49:57.804Z,6.64
2023-01-04T08:52:24.686Z,6.71
2023-01-04T08:54:51.355Z,6.74
2023-01-04T08:57:18.705Z,6.70
2023-01-04T08:59:45.325Z,6.74
2023-01-04T09:02:24.271Z,6.72
2023-01-04T09:04:51.454Z,6.77
2023-01-04T09:07:18.607Z,6.83
2023-01-04T09:09:45.416Z,6.87
2023-01-04T09:12:12.173Z,6.83
2023-01-04T09:14:39.390Z,6.85
2023-01-04T09:17:06.356Z,6.90
2023-01-04T09:19:33.001Z,6.97
2023-01-04T09:21:59.708Z,7.02
2023-01-04T09:24:26.349Z,7.07
2023-01-04T09:26:53.252Z,7.07
2023-01-04T09:29:20.113Z,7.75
2023-01-04T09:31:47.122Z,7.51
2023-01-04T09:34:16.008Z,7.34
2023-01-04T09:36:44.534Z,7.44
2023-01-04T09:39:18.741Z,7.51
2023-01-04T09:42:00.006Z,7.50
2023-01-04T09:48:00.056Z,7.47
2023-01-04T09:50:37.444Z,7.96
2023-01-04T09:53:18.542Z,7.62
2023-01-04T09:58:31.607Z,7.48
2023-01-04T10:01:03.202Z,7.56
2023-01-04T10:03:33.297Z,7.60
2023-01-04T10:08:32.509Z,7.62
2023-01-04T10:11:14.273Z,7.66
2023-01-04T10:13:55.791Z,7.71
2023-01-04T10:22:40.094Z,7.85
2023-01-04T10:28:34.280Z,7.89
2023-01-04T10:31:39.287Z,7.91
2023-01-04T10:34:39.207Z,7.90
2023-01-04T10:37:22.478Z,7.96
2023-01-04T10:39:55.751Z,8.04
2023-01-04T10:42:30.751Z,8.04
2023-01-04T10:45:09.347Z,7.96
2023-01-04T10:47:47.417Z,8.11
2023-01-04T10:50:30.603Z,8.18
2023-01-04T10:53:05.914Z,8.24
2023-01-04T10:56:23.123Z,8.26
2023-01-04T10:58:35.964Z,8.33
2023-01-04T11:01:12.427Z,8.46
2023-01-04T11:03:53.881Z,8.56
2023-01-04T11:06:40.920Z,8.66
2023-01-04T11:09:21.139Z,8.73
2023-01-04T11:11:51.523Z,8.70
2023-01-04T11:14:18.368Z,8.77
2023-01-04T11:16:48.959Z,8.74
2023-01-04T11:19:15.827Z,8.85
2023-01-04T11:21:52.557Z,8.89
2023-01-04T11:24:32.104Z,8.96
2023-01-04T11:27:06.269Z,8.95
2023-01-04T11:29:42.640Z,8.89
2023-01-04T11:34:57.711Z,9.01
2023-01-04T11:37:25.909Z,8.99
2023-01-04T11:39:52.531Z,9.01
2023-01-04T11:42:22.274Z,9.02
2023-01-04T11:44:59.155Z,9.08
2023-01-04T11:47:31.418Z,9.07
2023-01-04T11:49:59.811Z,9.11
2023-01-04T11:52:33.437Z,9.14
2023-01-04T11:55:25.654Z,9.13
2023-01-04T11:58:11.339Z,9.19
2023-01-04T12:00:39.134Z,9.15
2023-01-04T12:03:18.718Z,9.16
2023-01-04T12:05:45.322Z,9.21
2023-01-04T12:08:32.136Z,9.26
2023-01-04T12:11:00.959Z,9.25
2023-01-04T12:13:28.983Z,9.31
2023-01-04T12:16:07.817Z,9.29
2023-01-04T12:18:43.600Z,9.27
2023-01-04T12:21:19.381Z,9.23
2023-01-04T12:23:47.048Z,9.31
2023-01-04T12:26:14.976Z,9.33
2023-01-04T12:28:44.961Z,9.42
2023-01-04T12:31:21.269Z,9.42
2023-01-04T12:34:13.347Z,9.51
2023-01-04T12:36:39.867Z,9.51
2023-01-04T12:39:12.621Z,9.59
2023-01-04T12:41:39.121Z,9.60
2023-01-04T12:44:39.907Z,9.63
2023-01-04T12:47:37.347Z,9.69
2023-01-04T12:50:27.735Z,9.76
2023-01-04T12:55:55.470Z,9.80
2023-01-04T12:59:06.874Z,9.82
2023-01-04T13:01:24.118Z,9.89
2023-01-04T13:03:59.447Z,9.89
2023-01-04T13:06:35.966Z,9.88
2023-01-04T13:09:02.651Z,9.86
2023-01-04T13:11:55.532Z,9.89
2023-01-04T13:14:44.074Z,9.90
2023-01-04T13:17:16.655Z,9.88
2023-01-04T13:19:44.388Z,9.87
2023-01-04T13:22:23.401Z,9.91
2023-01-04T13:24:56.425Z,9.94
2023-01-04T13:27:24.458Z,9.93
2023-01-04T13:29:52.233Z,9.94
2023-01-04T13:32:30.739Z,10.03
2023-01-04T13:35:13.947Z,10.03
2023-01-04T13:37:45.653Z,10.03
2023-01-04T13:40:21.967Z,10.06
2023-01-04T13:42:51.969Z,10.08
2023-01-04T13:45:40.600Z,10.10
2023-01-04T13:48:13.085Z,10.10
2023-01-04T13:50:47.391Z,10.15
2023-01-04T13:53:25.148Z,10.09
2023-01-04T13:55:53.941Z,10.13
2023-01-04T13:58:42.268Z,10.15
2023-01-04T14:01:11.935Z,10.17
2023-01-04T14:03:43.807Z,10.21
2023-01-04T14:06:10.405Z,10.20
2023-01-04T14:08:50.778Z,10.25
2023-01-04T14:11:39.636Z,10.28
2023-01-04T14:17:12.800Z,10.28
2023-01-04T14:19:49.832Z,10.29
2023-01-04T14:22:44.604Z,10.33
2023-01-04T14:25:34.444Z,10.33
2023-01-04T14:28:24.693Z,10.35
2023-01-04T14:30:54.344Z,10.36
2023-01-04T14:33:26.434Z,10.33
2023-01-04T14:36:27.058Z,10.37
2023-01-04T14:39:08.755Z,10.39
2023-01-04T14:41:42.443Z,10.38
2023-01-04T14:44:12.541Z,10.37
2023-01-04T14:46:41.936Z,10.35
2023-01-04T14:49:08.713Z,10.41
2023-01-04T14:51:38.837Z,10.38
2023-01-04T14:54:06.706Z,10.38
2023-01-04T14:56:34.592Z,10.39
2023-01-04T14:59:01.311Z,10.36
2023-01-04T15:01:28.127Z,10.35
2023-01-04T15:03:55.182Z,10.36
2023-01-04T15:06:21.947Z,10.37
2023-01-04T15:08:49.009Z,10.39
2023-01-04T15:11:15.932Z,10.44
2023-01-04T15:13:42.532Z,10.39
2023-01-04T15:16:12.174Z,10.38
2023-01-04T15:21:13.568Z,10.39
2023-01-04T15:23:40.484Z,10.40
2023-01-04T15:26:08.922Z,10.40
2023-01-04T15:28:36.348Z,10.46
2023-01-04T15:31:08.341Z,10.47
2023-01-04T15:33:35.740Z,10.43
2023-01-04T15:36:04.978Z,10.42
2023-01-04T15:38:31.587Z,10.51
2023-01-04T15:41:05.899Z,10.42
2023-01-04T15:43:36.664Z,10.41
2023-01-04T15:46:08.581Z,10.42
2023-01-04T15:48:36.765Z,10.44
2023-01-04T15:51:07.837Z,10.46
2023-01-04T15:53:35.089Z,10.46
2023-01-04T15:56:10.979Z,10.46
2023-01-04T15:58:38.010Z,10.48
2023-01-04T16:01:15.589Z,10.53
2023-01-04T16:03:42.323Z,10.47
2023-01-04T16:06:11.170Z,10.49
2023-01-04T16:08:37.779Z,10.51
2023-01-04T16:11:16.559Z,10.51
2023-01-04T16:13:44.258Z,10.50
2023-01-04T16:16:11.426Z,10.48
2023-01-04T16:18:38.824Z,10.48
2023-01-04T16:21:09.130Z,10.45
2023-01-04T16:23:38.333Z,10.52
2023-01-04T16:26:13.478Z,10.53
2023-01-04T16:28:40.627Z,10.46
2023-01-04T16:31:08.463Z,10.43
2023-01-04T16:33:35.874Z,10.47
2023-01-04T16:36:08.592Z,10.45
2023-01-04T16:38:37.463Z,10.48
2023-01-04T16:41:06.228Z,10.50
2023-01-04T16:43:41.680Z,10.51
2023-01-04T16:46:15.367Z,10.50
2023-01-04T16:48:47.602Z,10.54
2023-01-04T16:51:14.696Z,10.53
2023-01-04T16:53:41.511Z,10.56
2023-01-04T16:56:10.650Z,10.57
2023-01-04T16:58:37.512Z,10.59
2023-01-04T17:01:17.225Z,10.60
2023-01-04T17:03:45.297Z,10.64
2023-01-04T17:06:14.573Z,10.64
2023-01-04T17:08:41.854Z,10.66
2023-01-04T17:12:11.491Z,10.68
2023-01-04T17:13:59.741Z,10.73
2023-01-04T17:16:32.619Z,10.66
2023-01-04T17:19:01.203Z,10.63
2023-01-04T17:21:34.192Z,10.92
2023-01-04T17:24:01.102Z,10.76
2023-01-04T17:26:30.434Z,10.76
2023-01-04T17:28:58.473Z,10.78
2023-01-04T17:31:28.599Z,10.78
2023-01-04T17:33:55.400Z,10.78
2023-01-04T17:36:22.155Z,10.77
2023-01-04T17:38:49.609Z,10.87
2023-01-04T17:41:18.124Z,10.83
2023-01-04T17:43:48.452Z,10.83
2023-01-04T17:46:22.805Z,10.84
2023-01-04T17:49:17.997Z,10.83
2023-01-04T17:51:40.042Z,10.80
2023-01-04T17:54:08.617Z,10.83
2023-01-04T17:56:37.274Z,10.90
2023-01-04T17:59:06.905Z,10.88
2023-01-04T18:01:35.101Z,10.89
2023-01-04T18:04:03.117Z,10.89
2023-01-04T18:09:08.150Z,10.86
2023-01-04T18:11:35.859Z,10.86
2023-01-04T18:14:05.997Z,10.86
2023-01-04T18:16:57.165Z,10.87
2023-01-04T18:19:26.626Z,10.82
2023-01-04T18:21:53.256Z,10.83
2023-01-04T18:24:37.225Z,10.75
2023-01-04T18:27:23.722Z,10.76
2023-01-04T18:29:52.080Z,10.82
2023-01-04T18:32:19.275Z,10.77
2023-01-04T18:34:45.851Z,10.75
2023-01-04T18:37:12.476Z,10.79
2023-01-04T18:39:39.087Z,10.76
2023-01-04T18:42:05.686Z,10.73
2023-01-04T18:44:34.960Z,11.21
2023-01-04T18:47:03.436Z,11.44
2023-01-04T18:49:30.179Z,11.19
2023-01-04T18:51:56.813Z,10.99
2023-01-04T18:54:23.883Z,10.94
2023-01-04T18:56:53.221Z,10.92
2023-01-04T18:59:24.160Z,10.90
2023-01-04T19:01:51.137Z,10.88
2023-01-04T19:06:58.606Z,10.87
2023-01-04T19:11:56.495Z,10.92
2023-01-04T19:14:23.122Z,10.86
2023-01-04T19:16:49.909Z,10.88
2023-01-04T19:19:16.546Z,10.80
2023-01-04T19:21:43.192Z,10.84
2023-01-04T19:24:09.732Z,10.82
2023-01-04T19:26:36.472Z,10.79
2023-01-04T19:29:05.067Z,10.85
2023-01-04T19:31:31.609Z,10.79
2023-01-04T19:33:58.337Z,10.83
2023-01-04T19:36:24.978Z,10.86
2023-01-04T19:38:51.546Z,10.82
2023-01-04T19:41:29.119Z,10.86
2023-01-04T19:43:58.129Z,10.86
2023-01-04T19:46:25.376Z,10.83
2023-01-04T19:48:52.049Z,10.83
2023-01-04T19:51:19.035Z,10.87
2023-01-04T19:53:45.848Z,10.83
2023-01-04T19:56:14.639Z,10.87
2023-01-04T19:58:41.233Z,10.87
2023-01-04T20:01:11.882Z,10.84
2023-01-04T20:03:38.763Z,10.84
2023-01-04T20:06:06.234Z,10.88
2023-01-04T20:08:33.617Z,10.82
2023-01-04T20:11:01.562Z,10.84
2023-01-04T20:13:29.760Z,10.81
2023-01-04T20:15:56.315Z,10.82
2023-01-04T20:18:26.387Z,10.82
2023-01-04T20:20:53.323Z,10.85
2023-01-04T20:23:21.793Z,10.84
2023-01-04T20:25:51.088Z,10.83
2023-01-04T20:28:20.016Z,10.85
2023-01-04T20:30:47.490Z,10.78
2023-01-04T20:33:14.411Z,10.75
2023-01-04T20:35:43.707Z,10.72
2023-01-04T20:38:11.490Z,10.72
2023-01-04T20:40:38.924Z,10.70
2023-01-04T20:43:23.853Z,10.72
2023-01-04T20:45:50.555Z,10.68
2023-01-04T20:48:17.256Z,10.68
2023-01-04T20:50:43.870Z,10.65
2023-01-04T20:53:11.620Z,10.70
2023-01-04T20:55:44.284Z,10.73
2023-01-04T20:58:14.731Z,10.72
2023-01-04T21:00:42.367Z,10.72
2023-01-04T21:03:11.041Z,10.72
2023-01-04T21:05:43.461Z,10.73
2023-01-04T21:08:11.990Z,10.72
2023-01-04T21:10:43.592Z,10.71
2023-01-04T21:13:11.530Z,10.71
2023-01-04T21:18:16.786Z,10.71
2023-01-04T21:20:44.021Z,10.69
2023-01-04T21:23:18.994Z,10.69
2023-01-04T21:25:46.029Z,10.60
2023-01-04T21:28:13.898Z,10.61
2023-01-04T21:30:42.049Z,10.66
2023-01-04T21:33:09.885Z,10.63
2023-01-04T21:35:37.051Z,10.61
2023-01-04T21:38:04.561Z,10.60
2023-01-04T21:40:32.686Z,10.60
2023-01-04T21:42:59.415Z,10.61
2023-01-04T21:45:26.566Z,10.65
2023-01-04T21:47:54.565Z,10.64
2023-01-04T21:50:21.220Z,10.60
2023-01-04T21:55:19.119Z,10.71
2023-01-04T21:57:45.656Z,10.70
2023-01-04T22:00:12.502Z,10.71
2023-01-04T22:02:41.165Z,10.70
2023-01-04T22:05:08.292Z,10.68
2023-01-04T22:07:34.872Z,10.67
2023-01-04T22:10:01.407Z,10.59
2023-01-04T22:12:28.028Z,10.61
2023-01-04T22:14:54.950Z,10.67
2023-01-04T22:17:21.512Z,10.65
2023-01-04T22:19:48.112Z,10.59
2023-01-04T22:22:14.813Z,10.56
2023-01-04T22:24:41.406Z,10.65
2023-01-04T22:27:08.128Z,10.63
2023-01-04T22:29:34.706Z,10.72
2023-01-04T22:32:01.262Z,10.82
2023-01-04T22:34:28.256Z,10.73
2023-01-04T22:36:54.908Z,10.74
2023-01-04T22:39:21.686Z,10.68
2023-01-04T22:44:20.055Z,10.70
2023-01-04T22:46:46.933Z,10.74
2023-01-04T22:49:13.542Z,10.69
2023-01-04T22:51:41.442Z,10.70
2023-01-04T22:54:10.130Z,10.70
2023-01-04T22:56:36.720Z,10.67
2023-01-04T22:59:03.349Z,10.68
2023-01-04T23:01:32.886Z,10.69
2023-01-04T23:04:01.456Z,10.71
2023-01-04T23:09:10.596Z,10.75
2023-01-04T23:11:38.309Z,10.71
2023-01-04T23:14:07.467Z,10.64
2023-01-04T23:16:34.188Z,10.70
2023-01-04T23:19:02.346Z,10.70
2023-01-04T23:21:30.056Z,10.69
2023-01-04T23:23:56.724Z,10.72
2023-01-04T23:26:24.908Z,10.71
2023-01-04T23:28:51.904Z,10.72
2023-01-04T23:33:57.100Z,10.70
2023-01-04T23:36:27.396Z,10.71
2023-01-04T23:38:56.465Z,10.73
2023-01-04T23:41:44.503Z,10.78
2023-01-04T23:44:17.880Z,10.73
2023-01-04T23:46:45.083Z,10.77
2023-01-04T23:49:12.759Z,10.80
2023-01-04T23:51:39.477Z,10.84
2023-01-04T23:54:06.825Z,10.72
2023-01-04T23:56:33.414Z,10.76
2023-01-04T23:59:00.154Z,10.75
